Time;durP1;ratioP1;P1;durP2;ratioP2;P2;SDS_P1;SDS_P2;PMS_P1;PMS_P2;Temp;Humidity;BMP_temperature;BMP_pressure;BME280_temperature;BME280_humidity;BME280_pressure;Samples;Min_cycle;Max_cycle;Signal;HPM_P1;HPM_P2
2022/07/04 00:02:19;;;;;;;1.40;0.90;;;22.30;92.00;;;;;;5008400;28;20030;-89
2022/07/04 00:04:45;;;;;;;1.33;0.50;;;;;;;;;;5001621;28;20030;-88
2022/07/04 00:07:11;;;;;;;1.05;0.80;;;;;;;;;;5007696;28;20475;-88
2022/07/04 00:09:37;;;;;;;1.88;1.15;;;;;;;;;;5007892;28;20050;-87
2022/07/04 00:12:03;;;;;;;2.05;0.82;;;;;;;;;;5018150;28;20085;-89
2022/07/04 00:14:29;;;;;;;2.63;0.52;;;;;;;;;;5002570;28;20719;-87
2022/07/04 00:16:55;;;;;;;1.30;0.80;;;;;;;;;;5012019;28;20057;-87
2022/07/04 00:19:21;;;;;;;1.23;0.50;;;;;;;;;;5012108;28;20068;-88
2022/07/04 00:21:47;;;;;;;1.02;0.80;;;;;;;;;;5011839;28;20022;-89
2022/07/04 00:24:13;;;;;;;2.40;0.57;;;;;;;;;;5012510;28;20029;-88
2022/07/04 00:26:39;;;;;;;0.60;0.50;;;;;;;;;;5011691;28;20040;-88
2022/07/04 00:29:04;;;;;;;2.15;1.00;;;;;;;;;;5011448;28;20037;-88
2022/07/04 00:31:30;;;;;;;3.05;0.65;;;;;;;;;;5023088;28;20026;-87
2022/07/04 00:33:57;;;;;;;1.95;0.88;;;;;;;;;;5011662;28;20026;-88
2022/07/04 00:36:22;;;;;;;1.95;0.60;;;;;;;;;;5012280;28;20025;-87
2022/07/04 00:38:48;;;;;;;1.15;0.70;;;;;;;;;;5011356;28;20038;-88
2022/07/04 00:41:14;;;;;;;0.95;0.60;;;;;;;;;;5011195;28;20061;-88
2022/07/04 00:43:40;;;;;;;4.38;1.00;;;;;;;;;;5011813;28;20042;-88
2022/07/04 00:46:06;;;;;;;1.35;0.77;;;;;;;;;;5011533;28;20072;-89
2022/07/04 00:48:33;;;;;;;0.57;0.50;;;;;;;;;;5011954;28;20030;-87
2022/07/04 00:50:59;;;;;;;2.25;0.80;;;;;;;;;;5010917;28;20029;-89
2022/07/04 00:53:25;;;;;;;0.75;0.52;;;;;;;;;;5005440;28;20038;-88
2022/07/04 00:55:51;;;;;;;4.05;0.60;;;;;;;;;;5011608;28;20026;-88
2022/07/04 00:58:21;;;;;;;0.98;0.55;;;22.20;91.80;;;;;;5010297;28;20026;-86
2022/07/04 01:00:47;;;;;;;0.80;0.50;;;;;;;;;;5008691;28;20034;-86
2022/07/04 01:03:13;;;;;;;2.05;0.60;;;;;;;;;;5011938;28;20116;-88
2022/07/04 01:05:39;;;;;;;0.95;0.60;;;;;;;;;;5010475;28;20184;-88
2022/07/04 01:08:05;;;;;;;0.67;0.57;;;;;;;;;;5006878;28;20120;-88
2022/07/04 01:10:31;;;;;;;0.68;0.50;;;;;;;;;;5009429;28;20284;-87
2022/07/04 01:12:57;;;;;;;1.20;0.80;;;;;;;;;;5010779;28;28852;-87
2022/07/04 01:15:23;;;;;;;2.47;0.60;;;;;;;;;;5011863;28;20528;-87
2022/07/04 01:17:49;;;;;;;3.25;0.77;;;22.20;89.90;;;;;;5010700;28;20030;-87
2022/07/04 01:20:16;;;;;;;0.85;0.50;;;;;;;;;;5003379;28;20060;-88
2022/07/04 01:22:42;;;;;;;2.15;0.80;;;;;;;;;;5009683;28;20034;-87
2022/07/04 01:25:08;;;;;;;1.08;0.60;;;22.30;91.50;;;;;;5010702;28;20028;-89
2022/07/04 01:27:35;;;;;;;2.60;0.50;;;;;;;;;;5007118;28;20544;-87
2022/07/04 01:30:01;;;;;;;0.80;0.60;;;;;;;;;;5010721;28;20033;-87
2022/07/04 01:32:27;;;;;;;1.27;0.47;;;;;;;;;;5010520;28;20408;-87
2022/07/04 01:34:53;;;;;;;0.98;0.50;;;;;;;;;;5010188;28;20552;-86
2022/07/04 01:37:19;;;;;;;0.68;0.68;;;;;;;;;;5012013;28;20121;-87
2022/07/04 01:39:45;;;;;;;0.90;0.57;;;;;;;;;;5010514;28;20726;-88
2022/07/04 01:42:11;;;;;;;1.80;0.77;;;;;;;;;;5007004;28;20040;-88
2022/07/04 01:44:37;;;;;;;1.20;0.88;;;;;;;;;;5010301;28;20030;-87
2022/07/04 01:47:03;;;;;;;1.30;0.80;;;;;;;;;;5010358;28;20492;-88
2022/07/04 01:49:29;;;;;;;2.03;1.83;;;;;;;;;;5007275;28;20069;-87
2022/07/04 01:51:55;;;;;;;2.70;0.88;;;;;;;;;;5009975;28;20068;-88
2022/07/04 01:54:21;;;;;;;0.98;0.70;;;;;;;;;;5011147;28;20501;-87
2022/07/04 01:56:47;;;;;;;1.27;0.80;;;;;;;;;;5005684;28;20030;-86
2022/07/04 01:59:13;;;;;;;1.13;0.85;;;;;;;;;;5010039;28;20041;-87
2022/07/04 02:01:39;;;;;;;1.10;1.00;;;;;;;;;;5009573;28;20519;-87
2022/07/04 02:04:06;;;;;;;1.10;0.60;;;22.00;91.90;;;;;;5009664;28;20077;-88
2022/07/04 02:06:32;;;;;;;0.70;0.52;;;;;;;;;;5010677;28;20397;-88
2022/07/04 02:09:17;;;;;;;1.00;0.90;;;;;;;;;;5009442;28;20065;-88
2022/07/04 02:14:30;;;;;;;2.90;0.60;;;21.90;91.80;;;;;;5009554;28;20470;-88
2022/07/04 02:16:56;;;;;;;1.42;0.90;;;;;;;;;;5009496;28;20125;-87
2022/07/04 02:19:22;;;;;;;0.95;0.85;;;;;;;;;;5009393;28;20030;-88
2022/07/04 02:21:48;;;;;;;23.30;3.20;;;;;;;;;;5008437;28;20026;-88
2022/07/04 02:24:14;;;;;;;1.52;0.88;;;;;;;;;;5025445;28;20037;-88
2022/07/04 02:26:40;;;;;;;4.75;0.40;;;;;;;;;;5009576;28;20068;-88
2022/07/04 02:29:06;;;;;;;2.97;0.60;;;;;;;;;;5009505;28;20050;-87
2022/07/04 02:31:32;;;;;;;1.77;0.68;;;;;;;;;;5009268;28;20025;-87
2022/07/04 02:33:58;;;;;;;2.15;0.60;;;;;;;;;;5009270;28;20052;-87
2022/07/04 02:36:24;;;;;;;0.75;0.63;;;;;;;;;;5010253;28;20033;-87
2022/07/04 02:38:50;;;;;;;0.75;0.60;;;;;;;;;;5007694;28;20080;-88
2022/07/04 02:41:16;;;;;;;0.52;0.52;;;;;;;;;;5009368;28;20045;-87
2022/07/04 02:43:42;;;;;;;1.38;0.55;;;;;;;;;;5008787;28;20141;-87
2022/07/04 02:46:08;;;;;;;1.17;0.80;;;;;;;;;;4997005;28;20032;-88
2022/07/04 02:48:34;;;;;;;0.52;0.40;;;;;;;;;;5010014;28;20041;-87
2022/07/04 02:51:00;;;;;;;1.13;0.70;;;;;;;;;;5009183;28;20590;-87
2022/07/04 02:53:26;;;;;;;3.53;0.65;;;;;;;;;;5009011;28;20037;-87
2022/07/04 02:55:52;;;;;;;1.73;0.68;;;;;;;;;;5008864;28;20030;-88
2022/07/04 02:58:18;;;;;;;0.80;0.60;;;;;;;;;;5007898;28;20436;-88
2022/07/04 03:00:43;;;;;;;0.77;0.57;;;21.90;94.60;;;;;;5008998;28;20026;-87
2022/07/04 03:03:09;;;;;;;0.93;0.70;;;;;;;;;;5009698;28;20119;-86
2022/07/04 03:05:35;;;;;;;0.90;0.60;;;;;;;;;;5008285;28;20121;-87
2022/07/04 03:08:01;;;;;;;1.67;0.60;;;;;;;;;;5008879;28;20033;-87
2022/07/04 03:10:27;;;;;;;2.35;0.60;;;;;;;;;;5008952;28;20025;-87
2022/07/04 03:12:53;;;;;;;0.60;0.55;;;;;;;;;;5008865;28;20580;-88
2022/07/04 03:15:19;;;;;;;1.70;0.50;;;;;;;;;;5003021;28;20120;-88
2022/07/04 03:17:45;;;;;;;3.13;0.77;;;;;;;;;;5004374;28;20026;-88
2022/07/04 03:20:11;;;;;;;1.52;0.60;;;21.60;94.90;;;;;;5008800;28;20411;-88
2022/07/04 03:22:37;;;;;;;7.93;0.93;;;;;;;;;;5005085;28;20030;-87
2022/07/04 03:25:04;;;;;;;0.77;0.35;;;21.60;93.90;;;;;;5008179;28;20018;-88
2022/07/04 03:27:30;;;;;;;4.93;1.02;;;;;;;;;;5009605;28;20589;-87
2022/07/04 03:29:56;;;;;;;0.50;0.50;;;;;;;;;;5008355;28;20021;-86
2022/07/04 03:32:22;;;;;;;1.45;0.77;;;;;;;;;;5008146;28;20475;-88
2022/07/04 03:34:48;;;;;;;2.42;0.85;;;;;;;;;;5008751;28;20030;-88
2022/07/04 03:37:14;;;;;;;2.63;0.47;;;;;;;;;;5008456;28;20034;-88
2022/07/04 03:39:40;;;;;;;2.17;0.57;;;;;;;;;;5009017;28;20109;-87
2022/07/04 03:42:06;;;;;;;2.45;1.10;;;;;;;;;;5008739;28;20022;-87
2022/07/04 03:44:32;;;;;;;2.50;0.98;;;;;;;;;;5003962;28;20518;-88
2022/07/04 03:46:59;;;;;;;1.55;0.60;;;;;;;;;;5019467;28;20037;-87
2022/07/04 03:49:25;;;;;;;0.77;0.73;;;;;;;;;;5012510;28;20079;-88
2022/07/04 03:51:51;;;;;;;1.55;0.98;;;;;;;;;;5012391;28;20305;-87
2022/07/04 03:54:17;;;;;;;4.30;0.82;;;;;;;;;;5013147;28;20049;-87
2022/07/04 03:56:43;;;;;;;1.10;0.75;;;;;;;;;;5008033;28;20034;-87
2022/07/04 03:59:09;;;;;;;1.83;0.80;;;;;;;;;;5012397;28;20021;-87
2022/07/04 04:01:35;;;;;;;0.80;0.60;;;;;;;;;;5012160;28;20037;-87
2022/07/04 04:06:46;;;;;;;0.45;0.40;;;;;;;;;;5004829;28;20072;-87
2022/07/04 04:09:16;;;;;;;2.83;1.25;;;;;;;;;;5012868;28;20030;-88
2022/07/04 04:11:42;;;;;;;0.57;0.55;;;;;;;;;;5011925;28;20038;-87
2022/07/04 04:14:08;;;;;;;1.40;0.60;;;;;;;;;;5011786;28;20586;-88
2022/07/04 04:16:34;;;;;;;1.02;0.73;;;;;;;;;;5009013;28;20124;-88
2022/07/04 04:19:00;;;;;;;1.25;0.85;;;;;;;;;;5010612;28;20773;-87
2022/07/04 04:21:26;;;;;;;0.57;0.57;;;;;;;;;;5008626;28;20399;-88
2022/07/04 04:23:52;;;;;;;0.88;0.70;;;;;;;;;;5011645;28;20156;-88
2022/07/04 04:26:18;;;;;;;0.68;0.50;;;;;;;;;;5007375;28;20037;-87
2022/07/04 04:28:44;;;;;;;1.95;0.75;;;;;;;;;;5011514;28;20041;-87
2022/07/04 04:31:10;;;;;;;0.73;0.50;;;;;;;;;;5011900;28;20503;-87
2022/07/04 04:33:36;;;;;;;1.90;0.70;;;;;;;;;;5040189;28;20033;-87
2022/07/04 04:36:02;;;;;;;2.47;0.40;;;;;;;;;;5011280;28;20109;-87
2022/07/04 04:38:28;;;;;;;0.60;0.60;;;;;;;;;;5011712;28;20034;-88
2022/07/04 04:40:54;;;;;;;0.52;0.45;;;;;;;;;;5011851;28;20610;-88
2022/07/04 04:43:20;;;;;;;0.77;0.65;;;;;;;;;;5010956;28;20026;-88
2022/07/04 04:45:46;;;;;;;1.10;0.50;;;;;;;;;;5010576;28;20026;-87
2022/07/04 04:48:12;;;;;;;2.47;0.60;;;;;;;;;;5012042;28;20489;-87
2022/07/04 04:50:38;;;;;;;0.60;0.60;;;;;;;;;;5011194;28;20030;-87
2022/07/04 04:53:04;;;;;;;0.98;0.70;;;;;;;;;;5007486;28;20037;-87
2022/07/04 04:55:30;;;;;;;0.50;0.50;;;;;;;;;;5011329;28;20040;-87
2022/07/04 04:57:56;;;;;;;1.05;0.63;;;;;;;;;;5008255;28;20135;-86
2022/07/04 05:00:22;;;;;;;0.63;0.50;;;;;;;;;;5010444;28;20048;-88
2022/07/04 05:02:48;;;;;;;5.10;0.70;;;;;;;;;;5013203;28;20041;-87
2022/07/04 05:05:14;;;;;;;0.85;0.38;;;;;;;;;;5008849;28;20105;-87
2022/07/04 05:07:40;;;;;;;10.35;1.00;;;;;;;;;;5006180;28;20144;-87
2022/07/04 05:10:06;;;;;;;4.03;0.77;;;;;;;;;;5008673;28;20033;-87
2022/07/04 05:12:32;;;;;;;1.23;0.70;;;;;;;;;;5009867;28;20029;-87
2022/07/04 05:14:58;;;;;;;0.60;0.60;;;;;;;;;;5009033;28;20390;-85
2022/07/04 05:17:24;;;;;;;0.75;0.50;;;;;;;;;;5009166;28;20041;-85
2022/07/04 05:19:50;;;;;;;1.50;0.73;;;;;;;;;;5017530;28;20046;-88
2022/07/04 05:22:16;;;;;;;1.77;0.40;;;;;;;;;;5009051;28;20042;-87
2022/07/04 05:24:43;;;;;;;1.27;0.40;;;;;;;;;;5009607;28;20092;-88
2022/07/04 05:27:08;;;;;;;1.20;0.40;;;;;;;;;;5009261;28;20030;-87
2022/07/04 05:29:35;;;;;;;1.25;0.65;;;;;;;;;;5023700;28;20087;-88
2022/07/04 05:32:01;;;;;;;3.65;0.50;;;;;;;;;;5023786;28;20478;-88
2022/07/04 05:34:27;;;;;;;2.58;1.90;;;;;;;;;;5008551;28;20060;-87
2022/07/04 05:36:54;;;;;;;1.50;0.98;;;;;;;;;;5008190;28;20033;-87
2022/07/04 05:39:20;;;;;;;1.30;0.57;;;;;;;;;;5004605;28;20547;-88
2022/07/04 05:41:46;;;;;;;0.60;0.60;;;;;;;;;;5007798;28;20022;-89
2022/07/04 05:44:12;;;;;;;0.70;0.68;;;;;;;;;;5008154;28;20550;-88
2022/07/04 05:46:38;;;;;;;1.13;0.63;;;;;;;;;;5008908;28;20112;-89
2022/07/04 05:49:04;;;;;;;3.40;1.45;;;;;;;;;;5007614;28;20021;-88
2022/07/04 05:51:30;;;;;;;0.40;0.40;;;;;;;;;;5009262;28;20416;-89
2022/07/04 05:53:56;;;;;;;0.45;0.40;;;;;;;;;;5008042;28;20036;-81
2022/07/04 05:56:23;;;;;;;3.05;0.70;;;;;;;;;;5007483;28;20033;-82
2022/07/04 05:58:48;;;;;;;0.50;0.50;;;22.00;95.30;;;;;;5008192;28;20523;-82
2022/07/04 06:01:14;;;;;;;1.08;0.73;;;;;;;;;;5007263;28;20065;-88
2022/07/04 06:03:40;;;;;;;1.58;0.70;;;;;;;;;;5017044;28;20783;-87
2022/07/04 06:06:06;;;;;;;2.83;0.77;;;;;;;;;;5006899;28;20022;-88
2022/07/04 06:08:33;;;;;;;0.70;0.50;;;;;;;;;;5008968;28;20484;-89
2022/07/04 06:10:59;;;;;;;2.22;0.75;;;;;;;;;;5008090;28;20052;-88
2022/07/04 06:13:25;;;;;;;0.77;0.52;;;;;;;;;;5016521;28;20030;-87
2022/07/04 06:15:51;;;;;;;0.50;0.50;;;;;;;;;;5005351;28;20050;-85
2022/07/04 06:18:17;;;;;;;0.47;0.40;;;;;;;;;;5005750;28;20085;-87
2022/07/04 06:20:43;;;;;;;0.75;0.47;;;;;;;;;;5003934;28;20032;-86
2022/07/04 06:23:09;;;;;;;1.08;0.50;;;;;;;;;;5007946;28;20026;-85
2022/07/04 06:25:35;;;;;;;0.77;0.63;;;;;;;;;;5006532;28;20037;-84
2022/07/04 06:28:01;;;;;;;1.95;0.45;;;;;;;;;;5005990;28;20042;-87
2022/07/04 06:30:27;;;;;;;0.57;0.57;;;;;;;;;;5001007;28;20080;-85
2022/07/04 06:32:54;;;;;;;0.73;0.50;;;23.00;75.60;;;;;;5006437;28;20025;-85
2022/07/04 06:38:05;;;;;;;0.45;0.32;;;;;;;;;;5005582;28;20682;-86
2022/07/04 06:40:31;;;;;;;0.50;0.50;;;;;;;;;;5006340;28;20033;-86
2022/07/04 06:42:57;;;;;;;2.78;0.85;;;;;;;;;;5006912;28;20068;-86
2022/07/04 06:45:23;;;;;;;2.60;0.40;;;;;;;;;;5010609;28;20611;-87
2022/07/04 06:47:50;;;;;;;0.70;0.45;;;;;;;;;;5006840;28;20030;-87
2022/07/04 06:50:16;;;;;;;1.35;0.95;;;;;;;;;;5004628;28;20034;-86
2022/07/04 06:52:42;;;;;;;0.70;0.70;;;;;;;;;;5007085;28;20412;-86
2022/07/04 06:55:08;;;;;;;0.70;0.47;;;;;;;;;;5010919;28;20025;-87
2022/07/04 06:57:34;;;;;;;0.52;0.30;;;;;;;;;;5007932;28;20042;-88
2022/07/04 07:00:00;;;;;;;1.52;0.60;;;;;;;;;;5008633;28;20038;-87
2022/07/04 07:02:26;;;;;;;0.93;0.40;;;;;;;;;;5007444;28;20405;-87
2022/07/04 07:04:55;;;;;;;0.35;0.35;;;25.10;68.80;;;;;;5008067;28;20018;-85
2022/07/04 07:07:21;;;;;;;1.08;0.68;;;;;;;;;;5006800;28;20049;-84
2022/07/04 07:09:47;;;;;;;1.45;0.40;;;;;;;;;;5005754;28;20447;-83
2022/07/04 07:12:13;;;;;;;0.82;0.60;;;;;;;;;;5007335;28;20065;-83
2022/07/04 07:14:39;;;;;;;1.63;0.60;;;;;;;;;;5006775;28;20046;-83
2022/07/04 07:17:05;;;;;;;0.30;0.20;;;;;;;;;;5008073;28;20488;-84
2022/07/04 07:19:31;;;;;;;1.83;1.02;;;;;;;;;;5006286;28;20061;-84
2022/07/04 07:21:57;;;;;;;0.40;0.30;;;;;;;;;;5004426;28;20018;-83
2022/07/04 07:24:25;;;;;;;0.80;0.40;;;;;;;;;;5005281;28;20484;-83
2022/07/04 07:26:51;;;;;;;1.25;0.32;;;;;;;;;;5005696;28;20046;-84
2022/07/04 07:29:17;;;;;;;2.30;0.20;;;;;;;;;;5004684;28;20057;-84
2022/07/04 07:31:43;;;;;;;1.43;0.23;;;;;;;;;;5006435;28;20026;-83
2022/07/04 07:34:09;;;;;;;0.25;0.20;;;;;;;;;;5005380;28;20037;-84
2022/07/04 07:36:35;;;;;;;1.35;0.40;;;;;;;;;;5003439;28;20033;-83
2022/07/04 07:39:01;;;;;;;5.28;0.50;;;;;;;;;;5005146;28;20431;-85
2022/07/04 07:41:27;;;;;;;1.50;0.33;;;;;;;;;;5005203;28;20116;-83
2022/07/04 07:43:53;;;;;;;4.45;0.70;;;;;;;;;;5007747;28;20033;-83
2022/07/04 07:46:19;;;;;;;1.50;0.30;;;;;;;;;;5021244;28;20026;-83
2022/07/04 07:48:45;;;;;;;0.10;0.10;;;;;;;;;;5006372;28;20128;-83
2022/07/04 07:51:11;;;;;;;0.30;0.10;;;;;;;;;;5006782;28;20050;-83
2022/07/04 07:53:37;;;;;;;0.35;0.10;;;;;;;;;;5006533;28;20061;-83
2022/07/04 07:56:03;;;;;;;0.43;0.30;;;;;;;;;;5005736;28;20022;-84
2022/07/04 07:58:29;;;;;;;4.65;0.20;;;;;;;;;;5004734;28;20029;-85
2022/07/04 08:00:55;;;;;;;2.17;0.40;;;;;;;;;;5006519;28;20083;-84
2022/07/04 08:06:05;;;;;;;3.60;0.20;;;;;;;;;;5004967;28;20037;-83
2022/07/04 08:08:32;;;;;;;0.55;0.25;;;;;;;;;;5003172;28;20034;-84
2022/07/04 08:10:57;;;;;;;3.00;0.10;;;;;;;;;;5004090;28;20420;-84
2022/07/04 08:13:23;;;;;;;0.40;0.20;;;;;;;;;;5003834;28;20030;-84
2022/07/04 08:15:49;;;;;;;1.80;0.50;;;;;;;;;;5005876;28;20045;-84
2022/07/04 08:18:17;;;;;;;0.40;0.20;;;;;;;;;;5001834;28;20023;-84
2022/07/04 08:20:43;;;;;;;0.22;0.20;;;;;;;;;;5002720;28;20048;-84
2022/07/04 08:23:09;;;;;;;0.55;0.20;;;;;;;;;;5007058;28;20018;-84
2022/07/04 08:25:35;;;;;;;2.08;0.30;;;;;;;;;;5005111;28;20045;-83
2022/07/04 08:28:00;;;;;;;6.40;0.20;;;;;;;;;;5003119;28;20045;-84
2022/07/04 08:30:27;;;;;;;0.40;0.13;;;;;;;;;;5004581;28;20164;-83
2022/07/04 08:32:53;;;;;;;3.45;0.30;;;;;;;;;;5006925;28;20502;-84
2022/07/04 08:35:18;;;;;;;1.13;0.57;;;;;;;;;;5009156;28;20176;-84
2022/07/04 08:37:44;;;;;;;2.47;0.50;;;;;;;;;;5008328;28;20042;-83
2022/07/04 08:40:11;;;;;;;1.13;0.47;;;;;;;;;;5005350;28;20030;-83
2022/07/04 08:42:38;;;;;;;1.10;0.55;;;29.00;53.80;;;;;;5007567;28;20026;-83
2022/07/04 08:45:05;;;;;;;1.98;0.60;;;;;;;;;;5006250;28;20110;-83
2022/07/04 08:47:34;;;;;;;3.20;0.60;;;27.90;57.10;;;;;;5007880;28;20038;-83
2022/07/04 08:50:03;;;;;;;0.60;0.47;;;;;;;;;;5007132;28;20488;-83
2022/07/04 08:52:38;;;;;;;1.55;0.45;;;27.10;59.80;;;;;;5008047;28;20125;-83
2022/07/04 09:00:37;;;;;;;2.78;0.70;;;;;;;;;;5009412;28;20455;-83
2022/07/04 09:03:03;;;;;;;0.90;0.60;;;;;;;;;;5007461;28;20030;-83
2022/07/04 09:05:31;;;;;;;0.80;0.50;;;;;;;;;;5004369;28;20041;-83
2022/07/04 09:07:58;;;;;;;1.50;0.70;;;;;;;;;;5018222;28;20049;-83
2022/07/04 09:10:24;;;;;;;0.82;0.60;;;;;;;;;;5010962;28;20618;-84
2022/07/04 09:12:50;;;;;;;4.70;0.68;;;;;;;;;;5005681;28;20117;-84
2022/07/04 09:15:16;;;;;;;2.03;0.85;;;26.70;62.50;;;;;;5006145;28;20125;-84
2022/07/04 09:17:42;;;;;;;1.38;0.47;;;;;;;;;;5004383;28;20052;-83
2022/07/04 09:20:22;;;;;;;1.13;0.60;;;26.80;59.40;;;;;;5006540;28;20018;-83
2022/07/04 09:22:50;;;;;;;1.10;0.90;;;27.10;60.40;;;;;;5005689;28;20029;-83
2022/07/04 09:25:16;;;;;;;0.80;0.50;;;;;;;;;;5005295;28;20018;-83
2022/07/04 09:27:47;;;;;;;0.20;0.20;;;;;;;;;;5008919;28;20588;-84
2022/07/04 09:30:14;;;;;;;3.53;0.98;;;;;;;;;;5007988;28;20510;-83
2022/07/04 09:32:41;;;;;;;0.38;0.30;;;28.40;59.70;;;;;;5007403;28;20037;-85
2022/07/04 09:35:09;;;;;;;3.10;0.93;;;;;;;;;;5008565;28;20025;-82
2022/07/04 09:37:47;;;;;;;1.27;0.43;;;29.40;58.20;;;;;;5007604;28;20037;-81
2022/07/04 09:40:30;;;;;;;0.43;0.25;;;29.70;58.20;;;;;;5006971;28;20465;-82
2022/07/04 09:43:01;;;;;;;1.08;0.40;;;30.50;55.60;;;;;;5008043;28;20503;-83
2022/07/04 09:45:28;;;;;;;0.82;0.45;;;31.10;54.60;;;;;;5006971;28;20026;-83
2022/07/04 09:47:56;;;;;;;1.17;0.50;;;31.90;52.70;;;;;;5006825;28;20084;-83
2022/07/04 09:50:24;;;;;;;0.35;0.30;;;32.50;52.50;;;;;;5005842;28;20141;-88
2022/07/04 09:53:01;;;;;;;1.92;0.38;;;32.80;49.70;;;;;;5008070;28;20037;-84
2022/07/04 09:55:30;;;;;;;0.43;0.30;;;;;;;;;;5007291;28;20117;-85
2022/07/04 09:57:59;;;;;;;1.38;1.08;;;34.40;48.80;;;;;;5007721;28;20080;-84
2022/07/04 10:00:25;;;;;;;0.47;0.43;;;;;;;;;;5006559;28;20030;-85
2022/07/04 10:02:51;;;;;;;2.38;0.40;;;;;;;;;;5013130;28;20109;-84
2022/07/04 10:05:23;;;;;;;4.05;1.00;;;35.40;44.10;;;;;;5005767;28;20073;-85
2022/07/04 10:07:49;;;;;;;1.13;0.45;;;;;;;;;;5004825;28;20042;-85
2022/07/04 10:10:29;;;;;;;5.78;0.65;;;36.10;45.60;;;;;;5006481;28;20041;-85
2022/07/04 10:13:01;;;;;;;2.25;0.30;;;36.50;44.60;;;;;;5004212;28;20057;-86
2022/07/04 10:15:27;;;;;;;1.83;0.60;;;;;;;;;;5006867;28;20061;-85
2022/07/04 10:17:53;;;;;;;1.70;0.30;;;;;;;;;;5006845;28;20029;-85
2022/07/04 10:20:19;;;;;;;0.30;0.17;;;;;;;;;;5006789;28;20026;-86
2022/07/04 10:22:45;;;;;;;0.30;0.22;;;;;;;;;;5007734;28;20061;-85
2022/07/04 10:25:11;;;;;;;2.47;0.30;;;;;;;;;;5006635;28;20102;-86
2022/07/04 10:27:37;;;;;;;4.70;0.30;;;;;;;;;;5007627;28;20557;-85
2022/07/04 10:30:07;;;;;;;2.15;0.60;;;37.00;53.20;;;;;;5016222;28;20644;-85
2022/07/04 10:32:33;;;;;;;2.38;0.65;;;37.20;61.70;;;;;;5006139;28;20045;-86
2022/07/04 10:34:59;;;;;;;0.20;0.20;;;;;;;;;;5007127;28;20036;-86
2022/07/04 10:37:26;;;;;;;0.82;0.20;;;;;;;;;;5005935;28;20025;-86
2022/07/04 10:39:52;;;;;;;1.02;0.73;;;;;;;;;;5004853;28;20431;-85
2022/07/04 10:42:25;;;;;;;2.13;0.40;;;;;;;;;;5005925;28;20033;-85
2022/07/04 10:44:51;;;;;;;0.20;0.10;;;;;;;;;;5006060;28;20057;-85
2022/07/04 10:47:30;;;;;;;0.20;0.20;;;33.20;56.50;;;;;;5005460;28;20496;-86
2022/07/04 10:49:56;;;;;;;1.48;0.50;;;;;;;;;;5005660;28;20112;-85
2022/07/04 10:52:22;;;;;;;8.55;1.02;;;;;;;;;;5004664;28;20029;-84
2022/07/04 10:54:48;;;;;;;1.33;0.60;;;;;;;;;;5003926;28;20123;-85
2022/07/04 10:57:22;;;;;;;1.57;0.40;;;33.30;46.80;;;;;;5006703;28;20108;-85
2022/07/04 10:59:54;;;;;;;1.35;0.47;;;32.90;46.70;;;;;;5005260;28;24607;-85
2022/07/04 11:02:22;;;;;;;1.05;0.45;;;;;;;;;;5006475;28;20041;-83
2022/07/04 11:04:51;;;;;;;0.75;0.45;;;;;;;;;;5006762;28;20026;-85
2022/07/04 11:07:19;;;;;;;1.05;0.35;;;32.40;46.70;;;;;;5006220;28;20068;-85
2022/07/04 11:09:45;;;;;;;0.95;0.20;;;;;;;;;;5006731;28;20030;-85
2022/07/04 11:12:14;;;;;;;0.50;0.35;;;;;;;;;;5005357;28;20443;-85
2022/07/04 11:14:44;;;;;;;2.38;1.05;;;31.90;50.20;;;;;;5006098;28;20030;-85
2022/07/04 11:17:18;;;;;;;0.60;0.40;;;31.60;50.40;;;;;;5004743;28;20704;-85
2022/07/04 11:19:44;;;;;;;4.05;1.05;;;;;;;;;;5006987;28;20063;-85
2022/07/04 11:22:10;;;;;;;1.40;0.60;;;;;;;;;;5005803;28;20038;-85
2022/07/04 11:24:38;;;;;;;0.20;0.20;;;30.80;51.40;;;;;;5006962;28;20079;-84
2022/07/04 11:27:04;;;;;;;4.45;0.50;;;;;;;;;;5006245;28;20042;-85
2022/07/04 11:29:30;;;;;;;2.85;0.88;;;;;;;;;;5005281;28;20065;-85
2022/07/04 11:31:56;;;;;;;0.73;0.40;;;;;;;;;;5006621;28;20033;-85
2022/07/04 11:34:23;;;;;;;2.13;0.63;;;30.40;53.40;;;;;;5005063;28;20037;-85
2022/07/04 11:36:51;;;;;;;2.00;0.60;;;30.20;52.60;;;;;;5003982;28;20184;-86
2022/07/04 11:39:20;;;;;;;0.95;0.65;;;30.30;65.90;;;;;;5006457;28;20044;-84
2022/07/04 11:47:25;;;;;;;3.20;0.65;;;;;;;;;;5004783;28;20104;-85
2022/07/04 11:49:52;;;;;;;;;;;30.20;56.70;;;;;;5006674;28;20021;-85
2022/07/04 11:52:25;;;;;;;1.00;0.63;;;30.00;56.90;;;;;;5005465;28;19914;-86
2022/07/04 11:54:51;;;;;;;0.88;0.70;;;29.50;54.30;;;;;;5004929;28;20025;-85
2022/07/04 11:57:19;;;;;;;0.75;0.30;;;;;;;;;;5006176;28;20030;-85
2022/07/04 11:59:59;;;;;;;3.10;0.60;;;29.70;55.50;;;;;;5004362;28;20040;-85
2022/07/04 12:02:25;;;;;;;2.95;1.00;;;29.70;55.40;;;;;;5001766;28;20026;-88
2022/07/04 12:04:51;;;;;;;0.80;0.57;;;;;;;;;;5006716;28;20034;-87
2022/07/04 12:07:19;;;;;;;0.57;0.40;;;29.50;57.10;;;;;;5005724;28;20040;-87
2022/07/04 12:09:46;;;;;;;1.75;0.60;;;;;;;;;;5008497;28;20300;-87
2022/07/04 12:12:12;;;;;;;4.70;1.00;;;;;;;;;;5009931;28;20030;-87
2022/07/04 12:14:38;;;;;;;1.50;0.50;;;;;;;;;;5009839;28;20046;-86
2022/07/04 12:17:14;;;;;;;1.00;0.82;;;29.20;57.60;;;;;;5011298;28;20505;-88
2022/07/04 12:20:09;;;;;;;3.08;0.50;;;29.20;58.90;;;;;;5009700;28;20033;-87
2022/07/04 12:22:42;;;;;;;0.70;0.50;;;29.10;59.20;;;;;;5009780;28;20146;-87
2022/07/04 12:25:21;;;;;;;4.80;0.47;;;29.00;59.60;;;;;;5009922;28;20018;-87
2022/07/04 12:28:07;;;;;;;5.70;0.68;;;28.90;68.90;;;;;;5009474;28;20041;-87
2022/07/04 12:30:57;;;;;;;2.13;0.82;;;28.90;60.30;;;;;;5010399;28;20030;-87
2022/07/04 12:33:25;;;;;;;1.02;0.60;;;28.80;60.30;;;;;;5010265;28;20037;-86
2022/07/04 12:35:54;;;;;;;8.40;0.90;;;28.70;59.60;;;;;;5009671;28;20034;-83
2022/07/04 12:38:27;;;;;;;1.30;0.65;;;28.70;60.50;;;;;;5009329;28;20048;-84
2022/07/04 12:40:56;;;;;;;0.73;0.30;;;28.50;59.60;;;;;;5010105;28;20017;-84
2022/07/04 12:43:22;;;;;;;0.93;0.47;;;;;;;;;;5007196;28;20018;-86
2022/07/04 12:45:54;;;;;;;3.78;0.80;;;28.40;60.40;;;;;;5009792;28;20064;-88
2022/07/04 12:48:23;;;;;;;3.63;1.73;;;28.40;60.00;;;;;;5009622;28;20046;-88
2022/07/04 12:50:49;;;;;;;1.02;0.68;;;;;;;;;;5008818;28;20033;-87
2022/07/04 12:53:16;;;;;;;0.88;0.80;;;28.20;59.60;;;;;;5009242;28;20124;-86
2022/07/04 12:55:43;;;;;;;2.35;0.80;;;28.40;60.40;;;;;;5009741;28;20491;-85
2022/07/04 12:58:09;;;;;;;;;;;;;;;;;;5009288;28;20527;-87
2022/07/04 13:00:35;;;;;;;0.40;0.40;;;;;;;;;;5009609;28;19913;-82
2022/07/04 13:03:01;;;;;;;2.30;0.73;;;;;;;;;;5004747;28;20139;-84
2022/07/04 13:05:28;;;;;;;1.35;1.17;;;;;;;;;;5005112;28;20883;-85
2022/07/04 13:07:54;;;;;;;1.75;0.50;;;;;;;;;;5009068;28;20040;-84
2022/07/04 13:10:19;;;;;;;0.77;0.60;;;;;;;;;;5007634;28;20057;-82
2022/07/04 13:12:45;;;;;;;2.15;0.88;;;;;;;;;;5009525;28;20034;-84
2022/07/04 13:15:11;;;;;;;2.10;1.15;;;;;;;;;;5004530;28;20065;-81
2022/07/04 13:17:37;;;;;;;1.90;0.50;;;27.30;81.60;;;;;;4999178;28;20113;-81
2022/07/04 13:20:04;;;;;;;4.60;2.92;;;27.60;61.90;;;;;;5007494;28;20030;-81
2022/07/04 13:22:30;;;;;;;1.98;0.50;;;;;;;;;;5000580;28;20034;-84
2022/07/04 13:24:56;;;;;;;2.53;0.80;;;;;;;;;;5006997;28;20088;-84
2022/07/04 13:27:22;;;;;;;0.85;0.52;;;;;;;;;;5017553;28;20501;-83
2022/07/04 13:29:48;;;;;;;2.47;0.50;;;;;;;;;;5005555;28;20037;-82
2022/07/04 13:32:14;;;;;;;1.33;0.50;;;;;;;;;;5005037;28;20065;-83
2022/07/04 13:34:40;;;;;;;1.02;0.57;;;;;;;;;;5005427;28;20029;-82
2022/07/04 13:37:07;;;;;;;2.05;1.85;;;;;;;;;;5002395;28;20029;-82
2022/07/04 13:39:33;;;;;;;0.90;0.60;;;;;;;;;;5008129;28;20428;-83
2022/07/04 13:42:00;;;;;;;0.93;0.50;;;27.30;62.40;;;;;;5007959;28;20018;-82
2022/07/04 13:44:26;;;;;;;;;;;27.50;64.00;;;;;;5000124;28;20127;-82
2022/07/04 13:46:52;;;;;;;0.60;0.30;;;;;;;;;;5001325;28;19998;-82
2022/07/04 13:49:18;;;;;;;1.77;0.90;;;;;;;;;;5006027;28;20034;-83
2022/07/04 13:51:44;;;;;;;0.77;0.50;;;;;;;;;;5005777;28;20041;-83
2022/07/04 13:54:10;;;;;;;0.77;0.60;;;;;;;;;;5005751;28;20111;-83
2022/07/04 13:56:36;;;;;;;1.13;0.70;;;;;;;;;;4994304;28;20076;-85
2022/07/04 13:59:02;;;;;;;1.08;0.60;;;;;;;;;;5007348;28;20029;-85
2022/07/04 14:01:29;;;;;;;1.27;0.57;;;;;;;;;;5006824;28;20672;-86
2022/07/04 14:03:55;;;;;;;1.38;0.70;;;;;;;;;;5007424;28;20780;-86
2022/07/04 14:06:21;;;;;;;1.48;0.85;;;;;;;;;;5008113;28;20041;-84
2022/07/04 14:08:47;;;;;;;2.17;0.77;;;;;;;;;;5007381;28;20045;-85
2022/07/04 14:11:13;;;;;;;2.78;1.30;;;;;;;;;;5008878;28;20018;-85
2022/07/04 14:13:39;;;;;;;0.82;0.52;;;;;;;;;;5007576;28;20381;-85
2022/07/04 14:16:06;;;;;;;2.45;0.80;;;;;;;;;;5007439;28;20659;-84
2022/07/04 14:18:32;;;;;;;5.75;0.80;;;26.90;64.70;;;;;;5008176;28;20034;-83
2022/07/04 14:20:58;;;;;;;5.80;0.95;;;;;;;;;;5007120;28;20033;-82
2022/07/04 14:23:40;;;;;;;1.75;0.68;;;;;;;;;;5000051;28;20035;-85
2022/07/04 14:26:06;;;;;;;0.80;0.47;;;;;;;;;;5002365;28;20026;-84
2022/07/04 14:28:32;;;;;;;9.10;0.83;;;27.20;82.90;;;;;;5000135;28;20496;-85
2022/07/04 14:30:58;;;;;;;1.10;0.60;;;;;;;;;;5002543;28;20027;-85
2022/07/04 14:33:24;;;;;;;2.90;0.77;;;;;;;;;;5003043;28;20048;-84
2022/07/04 14:35:50;;;;;;;2.83;1.40;;;;;;;;;;5000621;28;20182;-85
2022/07/04 14:38:16;;;;;;;2.03;0.80;;;;;;;;;;4998992;28;20041;-84
2022/07/04 14:40:48;;;;;;;8.15;1.00;;;;;;;;;;4998071;28;20026;-85